Google Maps JavaScript API Example
Pilot Flight Report # 92966 Submitted by : AST003 on 2019-05-15
Date: 2019-05-15Aircraft: DeHavilland DHC6 Twin Otter - Wheeled
Flight No.: Not AvailableDistance (Nm): 121.26
Departure: GVSV - Sao PedroDestination: GVAC - Amilcar Cabral
 TimeFuelWeightSpeeds  
Out (Taxi)1012Z1447 lbs10232 lbs Flight RulesIFR
Off (Takeoff)1013Z 10228 lbs82 ktsFlight Level7500
On (Landing)1101Z 9621 lbs54 ktsVSTD-160 ft/min
In (Ramp)1107Z817 lbs9598 lbs ZFW8783 lbs
Flight0.80  -  0:48610 lbs  Pax0
Block0.92  -  0:55630 lbs  Cargo0
Departure WeatherGVSV 141011Z 02818KT 32SM FEW022 22/16 A2997
Destination WeatherGVAC 141107Z 02013KT 30SM BKN016 23/16 A2997
Flight Comments